South Sutton, New Hampshire
Current Conditions -  °F | °C
As of 7:51 AM on Monday 20 Oct 2014 (Local Time) from KCON Reporting Station
Clear Clear  
Wind Chill: 36°   Ceiling: Unl
Heat Index: 36°   Visibility: 10mi
Dew Point: 25°   Wind: 3mph
Humidity: 64%   Direction: 230°SW
Pressure: 30.01"   Gusts: NA
Location:  43.32°N, 71.93°W
Report Text: KCON 201151Z AUTO 23003KT 10SM CLR 02/M04 A3001 RMK AO2 SLP165 T00221039 10028 20011 53010
Loading
Personal Weather Stations






























Interactive Weather Map
Tropical Storm Tracking
New forecast layout! Learn more

10-Day Weather Forecast

Advertisements
Track Severe Weather on mobile